Terminal Aerodrome Forecast
Issued by NWS Atlanta, GA

Home | Current Version | Previous Version | Text Only | Print | Product List | Glossary On
Versions: 1 2 3 4 5 6 7 8 9 10 11 12 13 14 15 16 17 18 19 20 21 22
000
FTUS42 KFFC 261745
TAFMCN
TAF
KMCN 261745Z 2618/2718 25009G16KT P6SM BKN050 OVC250
     FM262300 22007KT P6SM VCSH BKN050
     FM270400 23007KT 6SM -SHRA BR OVC020
     FM270700 24007KT 4SM SHRA BR OVC008
     FM271300 31010KT P6SM OVC015
     FM271600 31012G20KT P6SM SCT040=

USA.gov is the U.S. government's official web portal to all federal, state and local government web resources and services.